createdAt,value
2023-08-31T00:00:16.602Z,29.593000
2023-08-31T00:05:16.653Z,29.593000
2023-08-31T00:10:16.654Z,29.595000
2023-08-31T00:15:16.571Z,29.600000
2023-08-31T00:20:18.476Z,29.602000
2023-08-31T00:25:18.469Z,29.605000
2023-08-31T00:30:18.388Z,29.607000
2023-08-31T00:35:18.390Z,29.607000
2023-08-31T00:41:01.945Z,29.606000
2023-08-31T00:45:18.382Z,29.611000
2023-08-31T00:50:24.722Z,29.615000
2023-08-31T00:56:01.919Z,29.616000
2023-08-31T01:00:18.399Z,29.617000
2023-08-31T01:05:18.438Z,29.616000
2023-08-31T01:10:16.736Z,29.621000
2023-08-31T01:15:18.503Z,29.623000
2023-08-31T01:21:01.896Z,29.621000
2023-08-31T01:26:01.983Z,29.620000
2023-08-31T01:31:01.906Z,29.622000
2023-08-31T01:36:01.883Z,29.626000
2023-08-31T01:40:16.669Z,29.627000
2023-08-31T01:45:21.452Z,29.624000
2023-08-31T01:51:01.978Z,29.620000
2023-08-31T01:55:16.664Z,29.625000
2023-08-31T02:00:16.830Z,29.630000
2023-08-31T02:05:24.752Z,29.632000
2023-08-31T02:10:18.461Z,29.634000
2023-08-31T02:16:02.124Z,29.632000
2023-08-31T02:20:16.663Z,29.636000
2023-08-31T02:25:16.734Z,29.638000
2023-08-31T02:30:18.474Z,29.639000
2023-08-31T02:35:18.537Z,29.641000
2023-08-31T02:41:02.077Z,29.637000
2023-08-31T02:45:16.628Z,29.640000
2023-08-31T02:50:18.478Z,29.640000
2023-08-31T02:55:18.523Z,29.639000
2023-08-31T03:01:02.143Z,29.636000
2023-08-31T03:05:16.762Z,29.640000
2023-08-31T03:10:18.502Z,29.639000
2023-08-31T03:15:16.690Z,29.640000
2023-08-31T03:20:18.502Z,29.641000
2023-08-31T03:25:18.553Z,29.643000
2023-08-31T03:30:24.888Z,29.639000
2023-08-31T03:36:01.970Z,29.640000
2023-08-31T03:40:16.685Z,29.646000
2023-08-31T03:45:18.503Z,29.647000
2023-08-31T03:50:18.475Z,29.646000
2023-08-31T03:56:01.952Z,29.651000
2023-08-31T04:01:01.206Z,29.649000
2023-08-31T04:05:15.969Z,29.651000
2023-08-31T04:10:23.998Z,29.652000
2023-08-31T04:16:01.346Z,29.652000
2023-08-31T04:20:17.763Z,29.654000
2023-08-31T04:25:17.759Z,29.656000
2023-08-31T04:30:24.117Z,29.659000
2023-08-31T04:35:17.800Z,29.664000
2023-08-31T04:40:17.717Z,29.663000
2023-08-31T04:45:15.982Z,29.664000
2023-08-31T04:51:01.223Z,29.669000
2023-08-31T04:56:01.249Z,29.673000
2023-08-31T05:00:17.793Z,29.674000
2023-08-31T05:05:17.749Z,29.678000
2023-08-31T05:11:01.265Z,29.680000
2023-08-31T05:15:17.762Z,29.680000
2023-08-31T05:20:16.011Z,29.680000
2023-08-31T05:25:17.797Z,29.679000
2023-08-31T05:31:01.287Z,29.682000
2023-08-31T05:35:17.757Z,29.683000
2023-08-31T05:40:16.069Z,29.681000
2023-08-31T05:45:17.817Z,29.682000
2023-08-31T05:51:01.306Z,29.685000
2023-08-31T05:55:15.992Z,29.687000
2023-08-31T06:00:16.065Z,29.685000
2023-08-31T06:05:55.074Z,29.685000
2023-08-31T06:10:24.058Z,29.686000
2023-08-31T06:15:16.023Z,29.691000
2023-08-31T06:20:16.031Z,29.693000
2023-08-31T06:25:16.029Z,29.691000
2023-08-31T06:30:17.783Z,29.691000
2023-08-31T06:35:19.137Z,29.694000
2023-08-31T06:40:17.799Z,29.695000
2023-08-31T06:45:17.868Z,29.694000
2023-08-31T06:50:15.994Z,29.698000
2023-08-31T06:55:16.003Z,29.698000
2023-08-31T07:00:16.030Z,29.696000
2023-08-31T07:06:01.272Z,29.697000
2023-08-31T07:11:01.269Z,29.700000
2023-08-31T07:15:16.010Z,29.702000
2023-08-31T07:20:17.845Z,29.700000
2023-08-31T07:26:01.315Z,29.702000
2023-08-31T07:30:17.827Z,29.705000
2023-08-31T07:35:17.956Z,29.708000
2023-08-31T07:40:16.050Z,29.712000
2023-08-31T07:45:17.903Z,29.711000
2023-08-31T07:50:17.834Z,29.712000
2023-08-31T07:55:17.800Z,29.714000
2023-08-31T08:01:01.409Z,29.715000
2023-08-31T08:05:19.585Z,29.716000
2023-08-31T08:10:17.903Z,29.720000
2023-08-31T08:15:15.969Z,29.718000
2023-08-31T08:21:01.369Z,29.720000
2023-08-31T08:25:17.874Z,29.717000
2023-08-31T08:30:17.923Z,29.718000
2023-08-31T08:35:16.092Z,29.719000
2023-08-31T08:41:01.386Z,29.725000
2023-08-31T08:46:01.404Z,29.726000
2023-08-31T08:50:17.928Z,29.724000
2023-08-31T08:56:01.358Z,29.728000
2023-08-31T09:00:17.884Z,29.729000
2023-08-31T09:05:16.252Z,29.731000
2023-08-31T09:10:17.889Z,29.730000
2023-08-31T09:15:17.951Z,29.730000
2023-08-31T09:20:17.858Z,29.735000
2023-08-31T09:26:01.350Z,29.737000
2023-08-31T09:30:16.090Z,29.741000
2023-08-31T09:35:20.019Z,29.746000
2023-08-31T09:41:01.354Z,29.749000
2023-08-31T09:45:16.095Z,29.754000
2023-08-31T09:50:18.009Z,29.756000
2023-08-31T09:55:24.150Z,29.761000
2023-08-31T10:01:01.387Z,29.760000
2023-08-31T10:06:01.378Z,29.765000
2023-08-31T10:10:16.087Z,29.768000
2023-08-31T10:15:24.156Z,29.769000
2023-08-31T10:21:01.396Z,29.771000
2023-08-31T10:25:16.120Z,29.775000
2023-08-31T10:31:01.502Z,29.780000
2023-08-31T10:36:01.464Z,29.782000
2023-08-31T10:41:01.367Z,29.785000
2023-08-31T10:45:16.126Z,29.787000
2023-08-31T10:51:01.501Z,29.788000
2023-08-31T10:55:18.014Z,29.790000
2023-08-31T11:00:17.972Z,29.793000
2023-08-31T11:05:17.897Z,29.794000
2023-08-31T11:10:16.132Z,29.795000
2023-08-31T11:15:18.145Z,29.801000
2023-08-31T11:20:16.124Z,29.804000
2023-08-31T11:25:17.949Z,29.802000
2023-08-31T11:30:16.138Z,29.806000
2023-08-31T11:35:17.960Z,29.810000
2023-08-31T11:41:01.420Z,29.806000
2023-08-31T11:46:01.897Z,29.810000
2023-08-31T11:50:16.035Z,29.815000
2023-08-31T11:55:16.382Z,29.810000
2023-08-31T12:01:01.511Z,29.812000
2023-08-31T12:05:24.188Z,29.819000
2023-08-31T12:10:17.967Z,29.826000
2023-08-31T12:15:24.437Z,29.829000
2023-08-31T12:20:17.957Z,29.828000
2023-08-31T12:25:16.156Z,29.831000
2023-08-31T12:30:24.263Z,29.829000
2023-08-31T12:35:17.964Z,29.834000
2023-08-31T12:41:01.429Z,29.835000
2023-08-31T12:45:17.984Z,29.835000
2023-08-31T12:50:16.125Z,29.837000
2023-08-31T12:55:16.126Z,29.840000
2023-08-31T13:00:17.998Z,29.839000
2023-08-31T13:05:18.099Z,29.840000
2023-08-31T13:10:18.020Z,29.839000
2023-08-31T13:16:01.468Z,29.844000
2023-08-31T13:20:18.042Z,29.837000
2023-08-31T13:25:18.006Z,29.843000
2023-08-31T13:30:17.973Z,29.843000
2023-08-31T13:35:17.994Z,29.848000
2023-08-31T13:40:17.962Z,29.852000
2023-08-31T13:46:01.482Z,29.855000
2023-08-31T13:50:18.058Z,29.856000
2023-08-31T13:55:18.039Z,29.858000
2023-08-31T14:00:16.252Z,29.862000
2023-08-31T14:05:16.172Z,29.861000
2023-08-31T14:10:16.208Z,29.861000
2023-08-31T14:15:16.201Z,29.865000
2023-08-31T14:21:01.535Z,29.869000
2023-08-31T14:26:01.735Z,29.872000
2023-08-31T14:30:17.996Z,29.875000
2023-08-31T14:35:16.218Z,29.876000
2023-08-31T14:41:01.506Z,29.879000
2023-08-31T14:45:24.265Z,29.879000
2023-08-31T14:50:18.063Z,29.881000
2023-08-31T14:55:16.223Z,29.882000
2023-08-31T15:00:18.125Z,29.881000
2023-08-31T15:05:18.163Z,29.878000
2023-08-31T15:10:18.029Z,29.882000
2023-08-31T15:15:55.292Z,29.877000
2023-08-31T15:20:18.039Z,29.881000
2023-08-31T15:25:18.056Z,29.881000
2023-08-31T15:31:01.559Z,29.883000
2023-08-31T15:35:18.094Z,29.884000
2023-08-31T15:40:18.072Z,29.881000
2023-08-31T15:45:17.997Z,29.883000
2023-08-31T15:50:18.073Z,29.884000
2023-08-31T15:55:24.266Z,29.886000
2023-08-31T16:00:18.032Z,29.881000
2023-08-31T16:05:16.181Z,29.883000
2023-08-31T16:10:16.314Z,29.883000
2023-08-31T16:15:18.072Z,29.891000
2023-08-31T16:20:16.237Z,29.889000
2023-08-31T16:26:01.503Z,29.886000
2023-08-31T16:30:18.040Z,29.885000
2023-08-31T16:35:16.266Z,29.886000
2023-08-31T16:40:18.113Z,29.886000
2023-08-31T16:46:01.625Z,29.885000
2023-08-31T16:51:01.495Z,29.885000
2023-08-31T16:55:18.049Z,29.887000
2023-08-31T17:00:16.312Z,29.885000
2023-08-31T17:06:01.576Z,29.884000
2023-08-31T17:10:16.250Z,29.885000
2023-08-31T17:16:01.653Z,29.887000
2023-08-31T17:20:18.087Z,29.889000
2023-08-31T17:25:18.102Z,29.888000
2023-08-31T17:31:01.635Z,29.886000
2023-08-31T17:35:18.069Z,29.887000
2023-08-31T17:40:18.097Z,29.888000
2023-08-31T17:45:18.092Z,29.892000
2023-08-31T17:50:18.069Z,29.891000
2023-08-31T17:56:01.637Z,29.893000
2023-08-31T18:00:18.098Z,29.889000
2023-08-31T18:05:16.367Z,29.894000
2023-08-31T18:11:01.652Z,29.892000
2023-08-31T18:15:24.328Z,29.889000
2023-08-31T18:20:18.103Z,29.890000
2023-08-31T18:26:01.622Z,29.890000
2023-08-31T18:30:18.084Z,29.889000
2023-08-31T18:36:01.639Z,29.891000
2023-08-31T18:40:16.281Z,29.890000
2023-08-31T18:45:24.366Z,29.886000
2023-08-31T18:50:16.315Z,29.884000
2023-08-31T18:55:16.273Z,29.884000
2023-08-31T19:01:01.765Z,29.883000
2023-08-31T19:05:18.137Z,29.885000
2023-08-31T19:11:01.703Z,29.887000
2023-08-31T19:15:24.339Z,29.883000
2023-08-31T19:21:10.485Z,29.884000
2023-08-31T19:25:24.346Z,29.887000
2023-08-31T19:31:01.642Z,29.887000
2023-08-31T19:35:39.125Z,29.889000
2023-08-31T19:41:01.615Z,29.889000
2023-08-31T19:45:18.097Z,29.889000
2023-08-31T19:50:18.177Z,29.894000
2023-08-31T19:55:18.130Z,29.891000
2023-08-31T20:00:16.276Z,29.889000
2023-08-31T20:05:18.174Z,29.890000
2023-08-31T20:10:24.387Z,29.891000
2023-08-31T20:15:18.160Z,29.890000
2023-08-31T20:20:16.320Z,29.890000
2023-08-31T20:25:19.220Z,29.890000
2023-08-31T20:31:01.857Z,29.893000
2023-08-31T20:35:18.152Z,29.893000
2023-08-31T20:41:01.673Z,29.896000
2023-08-31T20:45:18.120Z,29.899000
2023-08-31T20:50:18.172Z,29.900000
2023-08-31T20:55:16.333Z,29.903000
2023-08-31T21:01:01.649Z,29.899000
2023-08-31T21:05:18.886Z,29.900000
2023-08-31T21:10:24.388Z,29.900000
2023-08-31T21:15:16.315Z,29.903000
2023-08-31T21:20:18.270Z,29.906000
2023-08-31T21:25:16.339Z,29.905000
2023-08-31T21:30:16.329Z,29.908000
2023-08-31T21:35:24.452Z,29.909000
2023-08-31T21:40:18.156Z,29.909000
2023-08-31T21:45:16.362Z,29.913000
2023-08-31T21:50:16.355Z,29.917000
2023-08-31T21:55:18.215Z,29.920000
2023-08-31T22:00:16.357Z,29.922000
2023-08-31T22:05:16.361Z,29.923000
2023-08-31T22:11:01.686Z,29.924000
2023-08-31T22:15:18.162Z,29.927000
2023-08-31T22:20:24.630Z,29.930000
2023-08-31T22:25:16.408Z,29.932000
2023-08-31T22:30:16.366Z,29.931000
2023-08-31T22:35:16.716Z,29.933000
2023-08-31T22:40:18.249Z,29.933000
2023-08-31T22:45:18.228Z,29.935000
2023-08-31T22:50:16.384Z,29.936000
2023-08-31T22:55:16.376Z,29.936000
2023-08-31T23:00:16.369Z,29.938000
2023-08-31T23:05:18.214Z,29.941000
2023-08-31T23:10:23.125Z,29.943000
2023-08-31T23:15:18.165Z,29.945000
2023-08-31T23:20:18.232Z,29.948000
2023-08-31T23:25:24.579Z,29.952000
2023-08-31T23:30:16.397Z,29.956000
2023-08-31T23:35:16.391Z,29.960000
2023-08-31T23:40:18.258Z,29.961000
2023-08-31T23:45:18.259Z,29.963000
2023-08-31T23:51:01.690Z,29.966000
2023-08-31T23:55:18.217Z,29.971000
